sensor_id;sensor_type;location;lat;lon;timestamp;P1;durP1;ratioP1;P2;durP2;ratioP2
7585;SDS011;12459;42.646;23.292;2023-04-03T00:10:36;8.60;;;8.10;;
7585;SDS011;12459;42.646;23.292;2023-04-03T00:25:39;8.33;;;7.83;;
7585;SDS011;12459;42.646;23.292;2023-04-03T00:40:41;9.17;;;8.67;;
7585;SDS011;12459;42.646;23.292;2023-04-03T00:55:45;7.93;;;7.43;;
7585;SDS011;12459;42.646;23.292;2023-04-03T01:10:48;7.07;;;6.67;;
7585;SDS011;12459;42.646;23.292;2023-04-03T01:25:52;6.20;;;5.80;;
7585;SDS011;12459;42.646;23.292;2023-04-03T01:40:56;9.00;;;8.50;;
7585;SDS011;12459;42.646;23.292;2023-04-03T01:55:58;8.10;;;7.60;;
7585;SDS011;12459;42.646;23.292;2023-04-03T02:11:00;8.63;;;8.13;;
7585;SDS011;12459;42.646;23.292;2023-04-03T02:26:06;6.17;;;5.77;;
7585;SDS011;12459;42.646;23.292;2023-04-03T02:41:10;7.13;;;6.73;;
7585;SDS011;12459;42.646;23.292;2023-04-03T02:56:13;7.03;;;6.63;;
7585;SDS011;12459;42.646;23.292;2023-04-03T03:11:15;5.57;;;5.17;;
7585;SDS011;12459;42.646;23.292;2023-04-03T03:26:17;5.53;;;5.13;;
7585;SDS011;12459;42.646;23.292;2023-04-03T03:41:18;5.77;;;5.37;;
7585;SDS011;12459;42.646;23.292;2023-04-03T03:56:20;5.83;;;5.43;;
7585;SDS011;12459;42.646;23.292;2023-04-03T04:11:22;6.13;;;5.73;;
7585;SDS011;12459;42.646;23.292;2023-04-03T04:26:24;6.27;;;5.87;;
7585;SDS011;12459;42.646;23.292;2023-04-03T04:41:26;5.97;;;5.57;;
7585;SDS011;12459;42.646;23.292;2023-04-03T04:56:28;5.03;;;4.73;;
7585;SDS011;12459;42.646;23.292;2023-04-03T05:11:30;6.00;;;5.60;;
7585;SDS011;12459;42.646;23.292;2023-04-03T05:26:31;6.23;;;5.83;;
7585;SDS011;12459;42.646;23.292;2023-04-03T05:41:33;6.40;;;6.00;;
7585;SDS011;12459;42.646;23.292;2023-04-03T05:56:35;7.37;;;6.97;;
7585;SDS011;12459;42.646;23.292;2023-04-03T06:11:36;7.17;;;6.77;;
7585;SDS011;12459;42.646;23.292;2023-04-03T06:26:38;6.77;;;6.37;;
7585;SDS011;12459;42.646;23.292;2023-04-03T06:41:41;6.33;;;5.93;;
7585;SDS011;12459;42.646;23.292;2023-04-03T06:56:43;10.17;;;9.60;;
7585;SDS011;12459;42.646;23.292;2023-04-03T07:11:45;10.10;;;9.53;;
7585;SDS011;12459;42.646;23.292;2023-04-03T07:26:50;7.47;;;7.00;;
7585;SDS011;12459;42.646;23.292;2023-04-03T07:41:52;7.67;;;7.17;;
7585;SDS011;12459;42.646;23.292;2023-04-03T07:56:56;8.60;;;8.10;;
7585;SDS011;12459;42.646;23.292;2023-04-03T08:11:58;12.00;;;11.40;;
7585;SDS011;12459;42.646;23.292;2023-04-03T08:27:00;11.80;;;11.20;;
7585;SDS011;12459;42.646;23.292;2023-04-03T08:42:03;9.77;;;9.27;;
7585;SDS011;12459;42.646;23.292;2023-04-03T08:57:09;11.67;;;11.07;;
7585;SDS011;12459;42.646;23.292;2023-04-03T09:27:22;11.60;;;11.00;;
7585;SDS011;12459;42.646;23.292;2023-04-03T09:42:24;11.67;;;11.07;;
7585;SDS011;12459;42.646;23.292;2023-04-03T09:57:28;11.73;;;11.13;;
7585;SDS011;12459;42.646;23.292;2023-04-03T10:12:34;12.33;;;11.67;;
7585;SDS011;12459;42.646;23.292;2023-04-03T10:27:42;17.10;;;16.23;;
7585;SDS011;12459;42.646;23.292;2023-04-03T10:42:58;12.83;;;12.13;;
7585;SDS011;12459;42.646;23.292;2023-04-03T10:58:26;12.27;;;11.63;;
7585;SDS011;12459;42.646;23.292;2023-04-03T11:28:38;12.23;;;11.60;;
7585;SDS011;12459;42.646;23.292;2023-04-03T11:43:42;10.17;;;9.57;;
7585;SDS011;12459;42.646;23.292;2023-04-03T12:14:15;9.80;;;9.30;;
7585;SDS011;12459;42.646;23.292;2023-04-03T12:44:37;9.67;;;9.13;;
7585;SDS011;12459;42.646;23.292;2023-04-03T12:59:47;10.40;;;9.80;;
7585;SDS011;12459;42.646;23.292;2023-04-03T13:14:53;10.33;;;9.73;;
7585;SDS011;12459;42.646;23.292;2023-04-03T13:29:57;11.63;;;11.03;;
7585;SDS011;12459;42.646;23.292;2023-04-03T14:00:34;8.50;;;8.00;;
7585;SDS011;12459;42.646;23.292;2023-04-03T14:15:57;8.63;;;8.13;;
7585;SDS011;12459;42.646;23.292;2023-04-03T14:31:14;8.17;;;7.67;;
7585;SDS011;12459;42.646;23.292;2023-04-03T14:46:18;7.90;;;7.40;;
7585;SDS011;12459;42.646;23.292;2023-04-03T15:01:29;8.10;;;7.60;;
7585;SDS011;12459;42.646;23.292;2023-04-03T15:16:30;9.00;;;8.50;;
7585;SDS011;12459;42.646;23.292;2023-04-03T15:31:32;7.47;;;7.03;;
7585;SDS011;12459;42.646;23.292;2023-04-03T15:46:35;9.70;;;9.20;;
7585;SDS011;12459;42.646;23.292;2023-04-03T16:01:37;8.77;;;8.27;;
7585;SDS011;12459;42.646;23.292;2023-04-03T16:16:40;6.97;;;6.57;;
7585;SDS011;12459;42.646;23.292;2023-04-03T16:31:42;7.40;;;7.00;;
7585;SDS011;12459;42.646;23.292;2023-04-03T16:46:44;7.63;;;7.17;;
7585;SDS011;12459;42.646;23.292;2023-04-03T17:01:49;7.20;;;6.80;;
7585;SDS011;12459;42.646;23.292;2023-04-03T17:16:51;9.20;;;8.70;;
7585;SDS011;12459;42.646;23.292;2023-04-03T17:31:53;11.10;;;10.50;;
7585;SDS011;12459;42.646;23.292;2023-04-03T17:46:55;9.23;;;8.73;;
7585;SDS011;12459;42.646;23.292;2023-04-03T18:01:57;7.30;;;6.90;;
7585;SDS011;12459;42.646;23.292;2023-04-03T18:32:01;8.03;;;7.53;;
7585;SDS011;12459;42.646;23.292;2023-04-03T18:47:06;8.23;;;7.73;;
7585;SDS011;12459;42.646;23.292;2023-04-03T19:02:08;7.80;;;7.30;;
7585;SDS011;12459;42.646;23.292;2023-04-03T19:17:11;11.17;;;10.57;;
7585;SDS011;12459;42.646;23.292;2023-04-03T19:32:13;8.03;;;7.53;;
7585;SDS011;12459;42.646;23.292;2023-04-03T19:47:15;7.40;;;7.00;;
7585;SDS011;12459;42.646;23.292;2023-04-03T20:02:18;7.83;;;7.33;;
7585;SDS011;12459;42.646;23.292;2023-04-03T20:17:21;7.03;;;6.63;;
7585;SDS011;12459;42.646;23.292;2023-04-03T20:32:23;7.83;;;7.33;;
7585;SDS011;12459;42.646;23.292;2023-04-03T20:47:25;8.03;;;7.53;;
7585;SDS011;12459;42.646;23.292;2023-04-03T21:02:29;10.00;;;9.47;;
7585;SDS011;12459;42.646;23.292;2023-04-03T21:32:36;7.97;;;7.47;;
7585;SDS011;12459;42.646;23.292;2023-04-03T21:47:37;7.33;;;6.93;;
7585;SDS011;12459;42.646;23.292;2023-04-03T22:02:40;10.77;;;10.17;;
7585;SDS011;12459;42.646;23.292;2023-04-03T22:17:41;6.73;;;6.33;;
7585;SDS011;12459;42.646;23.292;2023-04-03T22:32:43;7.57;;;7.13;;
7585;SDS011;12459;42.646;23.292;2023-04-03T22:47:45;7.90;;;7.40;;
7585;SDS011;12459;42.646;23.292;2023-04-03T23:02:47;7.80;;;7.30;;
7585;SDS011;12459;42.646;23.292;2023-04-03T23:17:48;7.77;;;7.27;;
7585;SDS011;12459;42.646;23.292;2023-04-03T23:32:50;7.57;;;7.13;;
7585;SDS011;12459;42.646;23.292;2023-04-03T23:47:52;8.03;;;7.53;;
